createdAt,value
2022-11-03T00:02:21.884Z,100.00
2022-11-03T00:05:27.606Z,100.00
2022-11-03T00:08:15.627Z,100.00
2022-11-03T00:11:05.564Z,100.00
2022-11-03T00:13:54.413Z,100.00
2022-11-03T00:16:42.376Z,100.00
2022-11-03T00:19:31.705Z,100.00
2022-11-03T00:22:19.709Z,100.00
2022-11-03T00:25:08.911Z,100.00
2022-11-03T00:27:58.157Z,100.00
2022-11-03T00:30:46.123Z,100.00
2022-11-03T00:33:34.137Z,100.00
2022-11-03T00:36:25.602Z,100.00
2022-11-03T00:39:13.669Z,100.00
2022-11-03T00:42:01.624Z,100.00
2022-11-03T00:44:49.509Z,100.00
2022-11-03T00:47:58.132Z,100.00
2022-11-03T00:50:46.035Z,100.00
2022-11-03T00:53:37.349Z,100.00
2022-11-03T00:56:27.618Z,100.00
2022-11-03T00:59:15.571Z,100.00
2022-11-03T01:02:03.588Z,100.00
2022-11-03T01:05:09.280Z,100.00
2022-11-03T01:07:57.235Z,100.00
2022-11-03T01:11:00.417Z,100.00
2022-11-03T01:13:48.346Z,100.00
2022-11-03T01:16:36.334Z,100.00
2022-11-03T01:19:25.278Z,100.00
2022-11-03T01:22:14.072Z,100.00
2022-11-03T01:25:01.965Z,100.00
2022-11-03T01:27:51.255Z,100.00
2022-11-03T01:30:39.203Z,100.00
2022-11-03T01:33:27.072Z,100.00
2022-11-03T01:36:16.216Z,100.00
2022-11-03T01:39:04.190Z,100.00
2022-11-03T01:41:53.235Z,100.00
2022-11-03T01:44:44.382Z,100.00
2022-11-03T01:47:35.064Z,100.00
2022-11-03T01:50:23.050Z,100.00
2022-11-03T01:53:13.021Z,100.00
2022-11-03T01:56:03.768Z,100.00
2022-11-03T01:58:54.903Z,100.00
2022-11-03T02:01:45.874Z,100.00
2022-11-03T02:04:35.329Z,100.00
2022-11-03T02:07:27.373Z,100.00
2022-11-03T02:10:15.416Z,100.00
2022-11-03T02:13:08.555Z,100.00
2022-11-03T02:15:59.212Z,100.00
2022-11-03T02:18:48.856Z,100.00
2022-11-03T02:21:43.619Z,100.00
2022-11-03T02:24:43.954Z,100.00
2022-11-03T02:27:33.237Z,100.00
2022-11-03T02:30:21.151Z,100.00
2022-11-03T02:33:19.905Z,100.00
2022-11-03T02:36:13.559Z,100.00
2022-11-03T02:39:04.800Z,100.00
2022-11-03T02:41:57.305Z,100.00
2022-11-03T02:44:48.514Z,100.00
2022-11-03T02:47:40.081Z,100.00
2022-11-03T02:50:29.301Z,100.00
2022-11-03T02:53:17.609Z,100.00
2022-11-03T02:56:10.682Z,100.00
2022-11-03T02:59:02.488Z,100.00
2022-11-03T03:01:56.681Z,100.00
2022-11-03T03:04:50.506Z,100.00
2022-11-03T03:07:42.377Z,100.00
2022-11-03T03:10:34.497Z,100.00
2022-11-03T03:13:24.917Z,100.00
2022-11-03T03:16:16.564Z,100.00
2022-11-03T03:19:12.635Z,100.00
2022-11-03T03:22:09.738Z,100.00
2022-11-03T03:25:02.850Z,100.00
2022-11-03T03:27:54.858Z,100.00
2022-11-03T03:30:44.717Z,100.00
2022-11-03T03:33:34.663Z,100.00
2022-11-03T03:36:26.944Z,100.00
2022-11-03T03:39:17.784Z,100.00
2022-11-03T03:42:08.925Z,100.00
2022-11-03T03:44:57.866Z,100.00
2022-11-03T03:47:46.033Z,100.00
2022-11-03T03:50:36.812Z,100.00
2022-11-03T03:53:30.064Z,100.00
2022-11-03T03:56:19.573Z,100.00
2022-11-03T03:59:08.416Z,100.00
2022-11-03T04:01:56.421Z,100.00
2022-11-03T04:04:44.434Z,100.00
2022-11-03T04:07:51.425Z,100.00
2022-11-03T04:10:40.651Z,100.00
2022-11-03T04:13:46.045Z,100.00
2022-11-03T04:16:51.942Z,100.00
2022-11-03T04:19:57.576Z,100.00
2022-11-03T04:22:45.447Z,100.00
2022-11-03T04:25:33.366Z,100.00
2022-11-03T04:28:22.800Z,100.00
2022-11-03T04:31:13.076Z,100.00
2022-11-03T04:34:00.941Z,100.00
2022-11-03T04:36:49.145Z,100.00
2022-11-03T04:39:37.111Z,100.00
2022-11-03T04:42:25.004Z,100.00
2022-11-03T04:45:23.158Z,100.00
2022-11-03T04:48:14.196Z,100.00
2022-11-03T04:51:11.481Z,100.00
2022-11-03T04:54:03.683Z,100.00
2022-11-03T04:56:51.924Z,100.00
2022-11-03T04:59:40.116Z,100.00
2022-11-03T05:02:29.756Z,100.00
2022-11-03T05:05:19.729Z,100.00
2022-11-03T05:08:10.207Z,100.00
2022-11-03T05:11:00.561Z,100.00
2022-11-03T05:13:49.464Z,100.00
2022-11-03T05:16:37.589Z,100.00
2022-11-03T05:19:32.471Z,100.00
2022-11-03T05:22:23.165Z,100.00
2022-11-03T05:25:32.392Z,100.00
2022-11-03T05:28:26.891Z,100.00
2022-11-03T05:31:27.069Z,100.00
2022-11-03T05:34:32.971Z,100.00
2022-11-03T05:37:29.297Z,100.00
2022-11-03T05:40:22.696Z,100.00
2022-11-03T05:43:14.718Z,100.00
2022-11-03T05:46:04.182Z,100.00
2022-11-03T05:48:52.510Z,100.00
2022-11-03T05:51:44.626Z,100.00
2022-11-03T05:54:35.713Z,100.00
2022-11-03T05:57:23.555Z,100.00
2022-11-03T06:00:26.410Z,100.00
2022-11-03T06:03:17.229Z,100.00
2022-11-03T06:06:16.657Z,100.00
2022-11-03T06:09:26.067Z,100.00
2022-11-03T06:12:19.021Z,100.00
2022-11-03T06:15:22.986Z,100.00
2022-11-03T06:18:15.900Z,100.00
2022-11-03T06:21:08.169Z,100.00
2022-11-03T06:23:56.059Z,100.00
2022-11-03T06:26:48.164Z,100.00
2022-11-03T06:29:36.087Z,100.00
2022-11-03T06:32:24.740Z,100.00
2022-11-03T06:35:14.041Z,100.00
2022-11-03T06:38:02.463Z,100.00
2022-11-03T06:40:52.376Z,100.00
2022-11-03T06:43:43.333Z,100.00
2022-11-03T06:46:31.961Z,100.00
2022-11-03T06:49:28.574Z,100.00
2022-11-03T06:52:25.857Z,100.00
2022-11-03T06:55:24.251Z,100.00
2022-11-03T06:58:17.867Z,100.00
2022-11-03T07:01:15.602Z,100.00
2022-11-03T07:03:44.480Z,100.00
2022-11-03T07:06:21.024Z,100.00
2022-11-03T07:08:51.141Z,100.00
2022-11-03T07:11:21.154Z,100.00
2022-11-03T07:13:50.976Z,100.00
2022-11-03T07:16:33.379Z,100.00
2022-11-03T07:19:02.245Z,100.00
2022-11-03T07:21:37.363Z,100.00
2022-11-03T07:24:14.249Z,100.00
2022-11-03T07:26:41.846Z,100.00
2022-11-03T07:29:17.191Z,100.00
2022-11-03T07:31:46.354Z,100.00
2022-11-03T07:34:16.678Z,100.00
2022-11-03T07:36:45.403Z,100.00
2022-11-03T07:39:16.872Z,100.00
2022-11-03T07:41:45.098Z,100.00
2022-11-03T07:44:18.099Z,100.00
2022-11-03T07:46:47.689Z,100.00
2022-11-03T07:49:26.129Z,100.00
2022-11-03T07:51:54.428Z,100.00
2022-11-03T07:54:24.795Z,100.00
2022-11-03T07:56:55.913Z,100.00
2022-11-03T07:59:28.035Z,100.00
2022-11-03T08:01:58.517Z,100.00
2022-11-03T08:04:28.250Z,100.00
2022-11-03T08:06:56.208Z,100.00
2022-11-03T08:09:24.257Z,100.00
2022-11-03T08:11:52.579Z,100.00
2022-11-03T08:14:20.226Z,100.00
2022-11-03T08:16:47.838Z,100.00
2022-11-03T08:19:16.792Z,100.00
2022-11-03T08:21:44.395Z,100.00
2022-11-03T08:24:12.389Z,100.00
2022-11-03T08:26:39.947Z,100.00
2022-11-03T08:29:07.569Z,100.00
2022-11-03T08:31:35.228Z,100.00
2022-11-03T08:34:02.887Z,100.00
2022-11-03T08:36:31.919Z,100.00
2022-11-03T08:38:59.540Z,100.00
2022-11-03T08:41:27.144Z,100.00
2022-11-03T08:43:54.707Z,100.00
2022-11-03T08:46:22.312Z,100.00
2022-11-03T08:48:50.391Z,100.00
2022-11-03T08:51:17.996Z,100.00
2022-11-03T08:53:50.476Z,100.00
2022-11-03T08:56:19.248Z,100.00
2022-11-03T08:58:49.861Z,100.00
2022-11-03T09:01:17.522Z,100.00
2022-11-03T09:03:45.140Z,100.00
2022-11-03T09:06:12.884Z,100.00
2022-11-03T09:11:29.420Z,100.00
2022-11-03T09:13:57.739Z,100.00
2022-11-03T09:16:25.436Z,100.00
2022-11-03T09:18:53.060Z,100.00
2022-11-03T09:21:20.713Z,100.00
2022-11-03T09:23:48.397Z,100.00
2022-11-03T09:26:16.155Z,100.00
2022-11-03T09:28:45.471Z,100.00
2022-11-03T09:31:13.056Z,100.00
2022-11-03T09:33:40.876Z,92.82
2022-11-03T09:36:09.194Z,94.13
2022-11-03T09:38:36.839Z,100.00
2022-11-03T09:41:13.545Z,100.00
2022-11-03T09:43:54.872Z,100.00
2022-11-03T09:46:22.495Z,99.75
2022-11-03T09:48:50.155Z,100.00
2022-11-03T09:51:21.219Z,100.00
2022-11-03T09:53:49.721Z,100.00
2022-11-03T09:56:20.272Z,100.00
2022-11-03T09:58:53.019Z,99.15
2022-11-03T10:01:23.578Z,100.00
2022-11-03T10:03:51.402Z,100.00
2022-11-03T10:06:21.065Z,94.17
2022-11-03T10:08:49.707Z,95.71
2022-11-03T10:11:17.466Z,96.94
2022-11-03T10:13:48.815Z,94.81
2022-11-03T10:16:19.668Z,97.05
2022-11-03T10:18:49.385Z,95.91
2022-11-03T10:21:19.951Z,95.29
2022-11-03T10:23:47.601Z,95.69
2022-11-03T10:26:18.619Z,94.72
2022-11-03T10:29:00.115Z,92.25
2022-11-03T10:31:33.908Z,94.83
2022-11-03T10:34:03.513Z,93.66
2022-11-03T10:36:32.743Z,94.57
2022-11-03T10:39:01.645Z,94.01
2022-11-03T10:41:30.678Z,93.07
2022-11-03T10:44:08.039Z,93.97
2022-11-03T10:46:49.741Z,91.32
2022-11-03T10:49:21.455Z,92.94
2022-11-03T10:51:51.386Z,94.83
2022-11-03T10:54:22.759Z,94.02
2022-11-03T10:56:52.234Z,97.49
2022-11-03T10:59:21.758Z,96.02
2022-11-03T11:01:49.745Z,97.94
2022-11-03T11:04:19.150Z,93.62
2022-11-03T11:06:49.355Z,97.26
2022-11-03T11:09:23.382Z,95.01
2022-11-03T11:12:07.990Z,93.13
2022-11-03T11:14:39.232Z,95.77
2022-11-03T11:17:07.387Z,94.15
2022-11-03T11:20:08.363Z,94.19
2022-11-03T11:22:37.307Z,94.26
2022-11-03T11:25:05.171Z,95.16
2022-11-03T11:28:00.692Z,93.63
2022-11-03T11:31:04.992Z,92.23
2022-11-03T11:33:34.186Z,91.20
2022-11-03T11:36:20.386Z,93.92
2022-11-03T11:39:10.642Z,89.63
2022-11-03T11:42:10.451Z,91.83
2022-11-03T11:45:03.851Z,93.27
2022-11-03T11:47:50.203Z,92.13
2022-11-03T11:50:31.654Z,95.22
2022-11-03T11:53:20.088Z,96.05
2022-11-03T11:55:53.254Z,95.82
2022-11-03T11:58:25.990Z,95.08
2022-11-03T12:00:57.551Z,97.47
2022-11-03T12:03:29.957Z,95.07
2022-11-03T12:05:57.716Z,94.64
2022-11-03T12:08:29.871Z,96.84
2022-11-03T12:11:01.584Z,98.23
2022-11-03T12:13:53.628Z,99.46
2022-11-03T12:16:34.375Z,99.92
2022-11-03T12:19:33.398Z,98.80
2022-11-03T12:22:01.636Z,100.00
2022-11-03T12:24:38.542Z,98.46
2022-11-03T12:27:20.761Z,100.00
2022-11-03T12:29:48.377Z,100.00
2022-11-03T12:32:32.314Z,100.00
2022-11-03T12:35:00.982Z,100.00
2022-11-03T12:37:28.649Z,100.00
2022-11-03T12:39:56.323Z,100.00
2022-11-03T12:42:26.023Z,100.00
2022-11-03T12:44:54.014Z,100.00
2022-11-03T12:47:21.892Z,100.00
2022-11-03T12:49:49.968Z,99.77
2022-11-03T12:52:17.613Z,99.80
2022-11-03T12:54:45.257Z,99.05
2022-11-03T12:57:12.853Z,100.00
2022-11-03T12:59:41.807Z,98.87
2022-11-03T13:02:11.042Z,96.58
2022-11-03T13:04:38.889Z,99.28
2022-11-03T13:07:06.522Z,99.14
2022-11-03T13:09:35.728Z,100.00
2022-11-03T13:12:21.346Z,99.28
2022-11-03T13:14:50.314Z,98.12
2022-11-03T13:17:18.039Z,99.35
2022-11-03T13:19:45.689Z,100.00
2022-11-03T13:22:13.344Z,100.00
2022-11-03T13:24:40.970Z,100.00
2022-11-03T13:27:08.629Z,100.00
2022-11-03T13:29:36.250Z,100.00
2022-11-03T13:32:05.854Z,100.00
2022-11-03T13:34:33.516Z,100.00
2022-11-03T13:37:01.560Z,100.00
2022-11-03T13:39:29.177Z,100.00
2022-11-03T13:41:56.911Z,100.00
2022-11-03T13:44:24.570Z,100.00
2022-11-03T13:46:52.711Z,100.00
2022-11-03T13:49:59.265Z,100.00
2022-11-03T13:52:10.011Z,100.00
2022-11-03T14:00:16.282Z,100.00
2022-11-03T14:05:33.835Z,100.00
2022-11-03T14:08:01.452Z,100.00
2022-11-03T14:10:29.097Z,99.46
2022-11-03T14:12:55.719Z,98.28
2022-11-03T14:15:23.320Z,95.93
2022-11-03T14:17:50.894Z,100.00
2022-11-03T14:20:18.674Z,100.00
2022-11-03T14:22:47.680Z,98.90
2022-11-03T14:25:15.422Z,95.58
2022-11-03T14:27:43.115Z,92.74
2022-11-03T14:30:12.588Z,90.32
2022-11-03T14:32:40.355Z,95.65
2022-11-03T14:35:08.730Z,94.87
2022-11-03T14:37:36.426Z,99.31
2022-11-03T14:40:06.783Z,96.75
2022-11-03T14:42:33.595Z,94.09
2022-11-03T14:45:01.245Z,93.93
2022-11-03T14:47:31.355Z,92.60
2022-11-03T14:49:58.947Z,91.34
2022-11-03T14:52:26.523Z,93.09
2022-11-03T14:54:54.349Z,90.51
2022-11-03T14:57:23.269Z,93.40
2022-11-03T14:59:53.578Z,91.26
2022-11-03T15:02:21.564Z,92.16
2022-11-03T15:04:49.209Z,92.65
2022-11-03T15:07:16.810Z,91.97
2022-11-03T15:09:44.402Z,94.28
2022-11-03T15:12:12.004Z,96.12
2022-11-03T15:14:40.958Z,95.33
2022-11-03T15:17:08.571Z,95.50
2022-11-03T15:19:36.179Z,94.86
2022-11-03T15:22:03.848Z,93.71
2022-11-03T15:27:18.997Z,93.82
2022-11-03T15:29:47.960Z,91.68
2022-11-03T15:32:15.587Z,91.93
2022-11-03T15:34:43.234Z,95.75
2022-11-03T15:37:10.855Z,96.47
2022-11-03T15:39:38.425Z,100.00
2022-11-03T15:42:06.315Z,99.81
2022-11-03T15:44:33.935Z,98.18
2022-11-03T15:47:02.859Z,100.00
2022-11-03T15:49:30.486Z,98.19
2022-11-03T15:51:58.123Z,99.93
2022-11-03T15:54:25.743Z,98.32
2022-11-03T15:56:53.543Z,100.00
2022-11-03T15:59:21.202Z,100.00
2022-11-03T16:01:49.071Z,100.00
2022-11-03T16:04:18.268Z,100.00
2022-11-03T16:07:06.844Z,100.00
2022-11-03T16:09:33.478Z,100.00
2022-11-03T16:12:01.097Z,100.00
2022-11-03T16:14:30.378Z,100.00
2022-11-03T16:16:58.149Z,100.00
2022-11-03T16:19:27.132Z,100.00
2022-11-03T16:21:54.725Z,100.00
2022-11-03T16:24:22.592Z,100.00
2022-11-03T16:26:50.837Z,100.00
2022-11-03T16:29:18.445Z,100.00
2022-11-03T16:31:48.208Z,100.00
2022-11-03T16:34:15.871Z,100.00
2022-11-03T16:36:45.328Z,100.00
2022-11-03T16:39:12.979Z,100.00
2022-11-03T16:41:40.634Z,100.00
2022-11-03T16:44:08.304Z,100.00
2022-11-03T16:46:35.996Z,100.00
2022-11-03T16:49:03.592Z,100.00
2022-11-03T16:51:31.240Z,100.00
2022-11-03T16:54:00.180Z,100.00
2022-11-03T16:56:27.869Z,100.00
2022-11-03T16:58:55.457Z,100.00
2022-11-03T17:01:23.160Z,100.00
2022-11-03T17:03:52.267Z,100.00
2022-11-03T17:06:19.895Z,100.00
2022-11-03T17:08:52.665Z,100.00
2022-11-03T17:14:15.502Z,100.00
2022-11-03T17:16:45.450Z,100.00
2022-11-03T17:19:13.260Z,100.00
2022-11-03T17:21:41.177Z,100.00
2022-11-03T17:24:10.989Z,100.00
2022-11-03T17:26:47.470Z,100.00
2022-11-03T17:29:19.676Z,100.00
2022-11-03T17:31:47.274Z,100.00
2022-11-03T17:34:14.975Z,100.00
2022-11-03T17:36:42.597Z,100.00
2022-11-03T17:39:15.592Z,100.00
2022-11-03T17:41:43.647Z,100.00
2022-11-03T17:44:12.683Z,100.00
2022-11-03T17:46:42.188Z,100.00
2022-11-03T17:49:09.773Z,100.00
2022-11-03T17:51:41.560Z,100.00
2022-11-03T17:54:10.092Z,100.00
2022-11-03T17:56:37.784Z,100.00
2022-11-03T17:59:05.533Z,100.00
2022-11-03T18:01:33.317Z,100.00
2022-11-03T18:04:03.404Z,100.00
2022-11-03T18:06:31.102Z,100.00
2022-11-03T18:08:59.264Z,100.00
2022-11-03T18:11:48.326Z,100.00
2022-11-03T18:14:16.552Z,100.00
2022-11-03T18:16:44.166Z,100.00
2022-11-03T18:19:15.702Z,100.00
2022-11-03T18:21:43.784Z,100.00
2022-11-03T18:24:13.585Z,100.00
2022-11-03T18:26:41.783Z,100.00
2022-11-03T18:29:09.836Z,100.00
2022-11-03T18:31:41.124Z,100.00
2022-11-03T18:34:16.614Z,100.00
2022-11-03T18:36:44.469Z,100.00
2022-11-03T18:39:18.004Z,100.00
2022-11-03T18:41:45.863Z,100.00
2022-11-03T18:44:17.710Z,100.00
2022-11-03T18:46:45.430Z,100.00
2022-11-03T18:49:14.888Z,100.00
2022-11-03T18:51:47.693Z,100.00
2022-11-03T18:56:50.843Z,100.00
2022-11-03T18:59:23.405Z,100.00
2022-11-03T19:01:51.835Z,100.00
2022-11-03T19:04:20.921Z,100.00
2022-11-03T19:06:50.166Z,100.00
2022-11-03T19:09:20.771Z,100.00
2022-11-03T19:11:49.662Z,100.00
2022-11-03T19:14:22.985Z,100.00
2022-11-03T19:17:21.387Z,100.00
2022-11-03T19:19:42.252Z,100.00
2022-11-03T19:22:14.262Z,100.00
2022-11-03T19:24:42.327Z,100.00
2022-11-03T19:27:16.813Z,100.00
2022-11-03T19:29:45.510Z,100.00
2022-11-03T19:32:20.482Z,100.00
2022-11-03T19:34:56.846Z,100.00
2022-11-03T19:37:24.651Z,100.00
2022-11-03T19:39:52.496Z,100.00
2022-11-03T19:42:29.348Z,100.00
2022-11-03T19:44:58.078Z,100.00
2022-11-03T19:47:31.575Z,100.00
2022-11-03T19:50:03.826Z,100.00
2022-11-03T19:52:32.516Z,100.00
2022-11-03T19:55:03.279Z,100.00
2022-11-03T19:57:30.913Z,100.00
2022-11-03T19:59:58.597Z,100.00
2022-11-03T20:02:27.656Z,100.00
2022-11-03T20:04:55.719Z,100.00
2022-11-03T20:07:30.964Z,100.00
2022-11-03T20:10:00.528Z,100.00
2022-11-03T20:12:28.672Z,100.00
2022-11-03T20:14:56.364Z,100.00
2022-11-03T20:17:24.545Z,100.00
2022-11-03T20:19:53.170Z,100.00
2022-11-03T20:22:28.578Z,100.00
2022-11-03T20:24:58.914Z,100.00
2022-11-03T20:27:26.536Z,100.00
2022-11-03T20:29:54.303Z,100.00
2022-11-03T20:32:21.926Z,100.00
2022-11-03T20:34:49.601Z,100.00
2022-11-03T20:37:19.356Z,100.00
2022-11-03T20:39:49.245Z,100.00
2022-11-03T20:42:21.232Z,100.00
2022-11-03T20:44:48.928Z,100.00
2022-11-03T20:47:17.306Z,100.00
2022-11-03T20:49:44.943Z,100.00
2022-11-03T20:52:14.310Z,100.00
2022-11-03T20:54:43.138Z,100.00
2022-11-03T20:57:13.203Z,100.00
2022-11-03T20:59:41.429Z,100.00
2022-11-03T21:02:11.694Z,100.00
2022-11-03T21:05:00.039Z,100.00
2022-11-03T21:07:48.487Z,100.00
2022-11-03T21:10:36.764Z,100.00
2022-11-03T21:13:26.180Z,100.00
2022-11-03T21:16:31.914Z,100.00
2022-11-03T21:19:40.251Z,100.00
2022-11-03T21:25:41.119Z,100.00
2022-11-03T21:28:30.359Z,100.00
2022-11-03T21:31:18.350Z,100.00
2022-11-03T21:34:06.213Z,100.00
2022-11-03T21:36:54.114Z,100.00
2022-11-03T21:39:43.296Z,100.00
2022-11-03T21:42:48.829Z,100.00
2022-11-03T21:45:38.117Z,100.00
2022-11-03T21:48:43.775Z,100.00
2022-11-03T21:51:31.715Z,100.00
2022-11-03T21:54:19.625Z,100.00
2022-11-03T21:57:08.108Z,100.00
2022-11-03T21:59:58.577Z,100.00
2022-11-03T22:02:47.827Z,100.00
2022-11-03T22:05:35.799Z,100.00
2022-11-03T22:08:24.301Z,100.00
2022-11-03T22:11:24.609Z,100.00
2022-11-03T22:14:13.668Z,100.00
2022-11-03T22:20:12.162Z,100.00
2022-11-03T22:23:18.849Z,100.00
2022-11-03T22:26:27.120Z,100.00
2022-11-03T22:29:32.898Z,100.00
2022-11-03T22:32:20.878Z,100.00
2022-11-03T22:35:29.606Z,100.00
2022-11-03T22:38:20.823Z,100.00
2022-11-03T22:41:26.371Z,100.00
2022-11-03T22:44:32.055Z,100.00
2022-11-03T22:47:20.007Z,100.00
2022-11-03T22:50:08.521Z,100.00
2022-11-03T22:52:57.830Z,100.00
2022-11-03T22:55:44.741Z,100.00
2022-11-03T22:58:32.656Z,100.00
2022-11-03T23:01:22.376Z,100.00
2022-11-03T23:04:10.369Z,100.00
2022-11-03T23:06:58.352Z,100.00
2022-11-03T23:09:47.875Z,100.00
2022-11-03T23:12:35.761Z,100.00
2022-11-03T23:15:35.654Z,100.00
2022-11-03T23:18:41.053Z,100.00
2022-11-03T23:21:29.142Z,100.00
2022-11-03T23:24:38.008Z,100.00
2022-11-03T23:27:29.702Z,100.00
2022-11-03T23:30:17.552Z,100.00
2022-11-03T23:33:05.688Z,100.00
2022-11-03T23:35:53.804Z,100.00
2022-11-03T23:38:42.579Z,100.00
2022-11-03T23:41:31.363Z,100.00
2022-11-03T23:44:20.641Z,100.00
2022-11-03T23:47:27.170Z,100.00
2022-11-03T23:50:15.111Z,100.00
2022-11-03T23:53:03.007Z,100.00
2022-11-03T23:56:04.862Z,100.00
2022-11-03T23:58:53.027Z,100.00
